Portada
METAR-TAF:

METAR-TAF

Aeroports :

Peer, Bèlgica

latitud: 51-10N, longitud: 005-28E, altitud: 55 m

Observació

L'informe es va fer fa 28 minuts, a les 18:25 UTC
Vent 13 kt del Nord/Nord-Est
Temperatura 4°C
Humitat 41%
Pressió 1032 hPa
Visibilitat 10 km o més

METAR: EBBL 291825Z AUTO 02013KT 9999 BKN058/// 04/M08 Q1032 BLU

Hora: 20:53 (18:53 UTC)


TAF: manca

Observacions i pronòstics meteorològics de més de 4000 aeroports (METAR i TAF).

Les estacions disponibles són els punts grocs i vermells al mapa.

Posi el ratolí al punt desitjat per veure el nom de l'estació.

Feu clic per veure les observacions i els pronòstics meteorològics.

Per canviar el mapa: feu clic els botons verds amb una creu de color negre per apropar; al botó verd amb un guió per allunyar la imatge; o en les fletxes verdes per a mapes adjacents.


METAR-TAF: